Time;durP1;ratioP1;P1;durP2;ratioP2;P2;SDS_P1;SDS_P2;PMS_P1;PMS_P2;Temp;Humidity;BMP_temperature;BMP_pressure;BME280_temperature;BME280_humidity;BME280_pressure;Samples;Min_cycle;Max_cycle;Signal;HPM_P1;HPM_P2
2022/12/11 00:03:55;;;;;;;57.90;21.27;;;0.50;99.90;;;;;;10319544;28;20122;-80
2022/12/11 00:08:56;;;;;;;56.47;19.87;;;0.50;99.90;;;;;;10320647;28;20058;-80
2022/12/11 00:13:56;;;;;;;61.67;21.00;;;0.50;99.90;;;;;;10321724;28;20066;-82
2022/12/11 00:18:57;;;;;;;61.43;19.30;;;0.50;99.90;;;;;;10322877;28;20697;-82
2022/12/11 00:23:58;;;;;;;64.77;20.67;;;0.60;99.90;;;;;;10322734;28;20022;-79
2022/12/11 00:28:58;;;;;;;63.17;20.43;;;0.50;99.90;;;;;;10321479;28;20068;-82
2022/12/11 00:34:00;;;;;;;59.47;22.23;;;0.60;99.90;;;;;;10323103;28;20046;-81
2022/12/11 00:39:02;;;;;;;61.67;21.43;;;0.60;99.90;;;;;;10322740;28;20385;-79
2022/12/11 00:44:03;;;;;;;62.47;20.67;;;0.60;99.90;;;;;;10323001;28;20034;-83
2022/12/11 00:49:03;;;;;;;66.17;20.47;;;0.60;99.90;;;;;;10323510;28;20042;-82
2022/12/11 00:54:05;;;;;;;67.67;20.97;;;0.60;99.90;;;;;;10321830;28;20034;-80
2022/12/11 00:59:05;;;;;;;61.43;20.13;;;0.60;99.90;;;;;;10321419;28;20146;-80
2022/12/11 01:04:06;;;;;;;56.90;19.30;;;0.60;99.90;;;;;;10320090;28;20081;-81
2022/12/11 01:14:26;;;;;;;75.97;20.60;;;0.70;99.90;;;;;;10312540;28;20054;-80
2022/12/11 01:19:27;;;;;;;50.53;19.30;;;0.70;99.90;;;;;;10320209;28;20524;-81
2022/12/11 01:24:27;;;;;;;55.63;17.53;;;0.70;99.90;;;;;;10321208;28;20096;-80
2022/12/11 01:29:28;;;;;;;62.33;16.20;;;0.60;99.90;;;;;;10321587;28;20034;-80
2022/12/11 01:34:29;;;;;;;64.83;16.83;;;0.60;99.90;;;;;;10319519;28;20038;-83
2022/12/11 01:39:30;;;;;;;69.40;18.10;;;0.60;99.90;;;;;;10320945;28;20109;-79
2022/12/11 01:44:30;;;;;;;74.03;17.63;;;0.70;99.90;;;;;;10320567;28;20034;-81
2022/12/11 01:49:31;;;;;;;78.87;17.03;;;0.60;99.90;;;;;;10320129;28;20069;-80
2022/12/11 01:54:33;;;;;;;69.10;17.13;;;0.60;99.90;;;;;;10319513;28;20034;-80
2022/12/11 01:59:37;;;;;;;61.23;15.77;;;0.60;99.90;;;;;;10320740;28;20034;-80
2022/12/11 02:04:38;;;;;;;80.03;19.37;;;0.60;99.90;;;;;;10318989;28;20042;-81
2022/12/11 02:09:42;;;;;;;75.07;15.53;;;0.60;99.90;;;;;;10318870;28;20548;-79
2022/12/11 02:15:10;;;;;;;82.53;18.17;;;0.60;99.90;;;;;;10318593;28;20154;-81
2022/12/11 02:20:15;;;;;;;92.63;16.77;;;0.60;99.90;;;;;;10318947;28;20036;-79
2022/12/11 02:25:48;;;;;;;94.83;21.27;;;0.60;99.90;;;;;;10319460;28;20034;-84
2022/12/11 02:30:54;;;;;;;63.27;16.67;;;0.60;99.90;;;;;;10319126;28;20026;-82
2022/12/11 02:35:55;;;;;;;96.07;20.13;;;0.50;99.90;;;;;;10318617;28;20046;-83
2022/12/11 02:40:58;;;;;;;88.90;20.40;;;0.50;99.90;;;;;;10319605;28;20521;-81
2022/12/11 02:46:01;;;;;;;101.20;19.93;;;0.60;99.90;;;;;;10319674;28;20015;-82
2022/12/11 02:51:04;;;;;;;109.73;22.30;;;0.50;99.90;;;;;;10318266;28;20474;-80
2022/12/11 02:56:17;;;;;;;101.53;21.77;;;0.50;99.90;;;;;;10318714;28;20054;-83
2022/12/11 03:01:18;;;;;;;96.57;22.97;;;0.50;99.90;;;;;;10317963;28;20045;-83
2022/12/11 03:06:23;;;;;;;86.70;19.43;;;0.50;99.90;;;;;;10317228;28;20394;-82
2022/12/11 03:11:23;;;;;;;90.23;19.47;;;0.50;99.90;;;;;;10317153;28;20062;-81
2022/12/11 03:16:36;;;;;;;83.13;20.10;;;0.40;99.90;;;;;;10317874;28;20104;-83
2022/12/11 03:21:42;;;;;;;91.73;22.73;;;0.50;99.90;;;;;;10316440;28;20022;-81
2022/12/11 03:26:49;;;;;;;103.65;24.85;;;0.40;99.90;;;;;;10325583;28;20033;-82
2022/12/11 03:32:02;;;;;;;105.70;21.87;;;0.40;99.90;;;;;;10326926;28;20030;-82
2022/12/11 03:37:09;;;;;;;99.63;23.03;;;0.50;99.90;;;;;;10325313;28;20077;-82
2022/12/11 03:42:12;;;;;;;97.50;20.43;;;0.50;99.90;;;;;;10323342;28;20030;-82
2022/12/11 03:47:17;;;;;;;90.53;20.97;;;0.40;99.90;;;;;;10325066;28;20153;-83
2022/12/11 03:52:19;;;;;;;82.47;22.60;;;0.40;99.90;;;;;;10321904;28;20040;-81
2022/12/11 03:57:24;;;;;;;116.13;26.20;;;0.40;99.90;;;;;;10323097;28;20038;-83
2022/12/11 04:02:25;;;;;;;107.90;24.13;;;0.40;99.90;;;;;;10324254;28;20026;-82
2022/12/11 04:07:26;;;;;;;86.27;21.83;;;0.30;99.90;;;;;;10322572;28;20034;-81
2022/12/11 04:12:26;;;;;;;98.43;23.87;;;0.30;99.90;;;;;;10323885;28;20038;-82
2022/12/11 04:28:10;;;;;;;77.67;19.63;;;0.10;99.90;;;;;;10324072;28;20773;-80
2022/12/11 04:33:10;;;;;;;77.13;19.73;;;0.10;99.90;;;;;;10322540;28;20030;-81
2022/12/11 04:38:11;;;;;;;61.60;18.47;;;0.10;99.90;;;;;;10323717;28;20046;-82
2022/12/11 04:43:11;;;;;;;87.20;21.90;;;0.00;99.90;;;;;;10322599;28;20084;-83
2022/12/11 04:48:12;;;;;;;81.03;20.10;;;0.00;99.90;;;;;;10323928;28;20042;-83
2022/12/11 04:53:12;;;;;;;82.57;20.00;;;-0.10;99.90;;;;;;10322083;28;20038;-82
2022/12/11 04:58:13;;;;;;;68.27;19.60;;;-0.10;99.90;;;;;;10322657;28;20018;-83
2022/12/11 05:03:14;;;;;;;62.63;18.87;;;-0.20;99.90;;;;;;10322110;28;20033;-80
2022/12/11 05:08:14;;;;;;;64.70;19.43;;;-0.30;99.90;;;;;;10319842;28;20029;-81
2022/12/11 05:13:15;;;;;;;65.13;17.50;;;-0.30;99.90;;;;;;10321455;28;20095;-81
2022/12/11 05:18:15;;;;;;;78.53;18.60;;;-0.40;99.90;;;;;;10321806;28;20129;-82
2022/12/11 05:23:16;;;;;;;54.50;17.63;;;-0.30;99.90;;;;;;10321341;28;20690;-80
2022/12/11 05:28:16;;;;;;;44.10;15.40;;;-0.30;99.90;;;;;;10322268;28;20025;-80
2022/12/11 05:33:17;;;;;;;46.53;12.73;;;-0.30;99.90;;;;;;10320801;28;20044;-82
2022/12/11 05:38:18;;;;;;;43.23;15.00;;;-0.30;99.90;;;;;;10320984;28;20714;-82
2022/12/11 05:43:18;;;;;;;45.37;12.40;;;-0.40;99.90;;;;;;10320774;28;20038;-83
2022/12/11 05:48:19;;;;;;;41.67;13.20;;;-0.40;99.90;;;;;;10320042;28;20030;-79
2022/12/11 05:53:19;;;;;;;41.97;11.47;;;-0.40;99.90;;;;;;10319719;28;20064;-82
2022/12/11 05:58:20;;;;;;;46.63;13.77;;;-0.40;99.90;;;;;;10320386;28;20117;-81
2022/12/11 06:03:21;;;;;;;39.63;12.60;;;-0.50;99.90;;;;;;10320098;28;20487;-79
2022/12/11 06:08:21;;;;;;;35.63;11.97;;;-0.40;99.90;;;;;;10319453;28;20054;-82
2022/12/11 06:13:22;;;;;;;41.57;13.67;;;-0.40;99.90;;;;;;10320082;28;20128;-83
2022/12/11 06:18:22;;;;;;;41.07;12.87;;;-0.50;99.90;;;;;;10318912;28;20545;-81
2022/12/11 06:23:23;;;;;;;38.73;13.53;;;-0.50;99.90;;;;;;10319297;28;20118;-79
2022/12/11 06:28:24;;;;;;;43.13;12.97;;;-0.50;99.90;;;;;;10319882;28;20065;-80
2022/12/11 06:33:24;;;;;;;48.03;14.27;;;-0.60;99.90;;;;;;10319423;28;20042;-80
2022/12/11 06:38:25;;;;;;;37.27;11.73;;;-0.50;99.90;;;;;;10318772;28;20058;-81
2022/12/11 06:43:25;;;;;;;47.80;15.10;;;-0.60;99.90;;;;;;10317595;28;20038;-80
2022/12/11 06:48:27;;;;;;;48.07;15.10;;;-0.60;99.90;;;;;;10320530;28;20046;-82
2022/12/11 06:53:27;;;;;;;40.23;12.03;;;-0.70;99.90;;;;;;10318709;28;20038;-80
2022/12/11 06:58:28;;;;;;;31.57;10.90;;;-0.70;99.90;;;;;;10321915;28;20034;-82
2022/12/11 07:03:29;;;;;;;48.10;16.83;;;-0.70;99.90;;;;;;10313088;28;20035;-82
2022/12/11 07:08:30;;;;;;;45.93;14.47;;;-0.70;99.90;;;;;;10328490;28;20380;-82
2022/12/11 07:13:32;;;;;;;46.80;15.60;;;-0.70;99.90;;;;;;10315309;28;20475;-78
2022/12/11 07:18:33;;;;;;;52.47;15.67;;;-0.70;99.90;;;;;;10311937;28;20246;-80
2022/12/11 07:23:34;;;;;;;51.23;17.03;;;-0.70;99.90;;;;;;10299218;28;20038;-81
2022/12/11 07:28:36;;;;;;;42.63;14.43;;;-0.80;99.90;;;;;;10292569;28;20460;-82
2022/12/11 07:33:36;;;;;;;63.20;18.37;;;-0.70;99.90;;;;;;10293824;28;20043;-84
2022/12/11 07:38:37;;;;;;;51.77;15.00;;;-0.70;99.90;;;;;;10295356;28;20055;-81
2022/12/11 07:43:38;;;;;;;55.17;16.70;;;-0.70;99.90;;;;;;10300763;28;20391;-81
2022/12/11 07:48:44;;;;;;;39.97;13.47;;;-0.70;99.90;;;;;;10311002;28;20069;-81
2022/12/11 07:53:47;;;;;;;41.45;14.35;;;-0.80;99.90;;;;;;10293973;28;20049;-82
2022/12/11 07:58:48;;;;;;;46.83;15.47;;;-0.80;99.90;;;;;;10311015;28;20030;-82
2022/12/11 08:03:49;;;;;;;38.70;13.17;;;-0.80;99.90;;;;;;10297325;28;20042;-80
2022/12/11 08:08:50;;;;;;;44.47;14.43;;;-0.70;99.90;;;;;;10292217;28;20100;-80
2022/12/11 08:13:50;;;;;;;46.60;17.10;;;-0.80;99.90;;;;;;10302396;28;20101;-81
2022/12/11 08:18:51;;;;;;;41.97;12.77;;;-0.80;99.90;;;;;;10307905;28;20027;-79
2022/12/11 08:23:53;;;;;;;47.90;14.77;;;-0.80;99.90;;;;;;10311351;28;20612;-83
2022/12/11 08:28:54;;;;;;;43.27;15.33;;;-0.80;99.90;;;;;;10322299;28;20057;-79
2022/12/11 08:33:56;;;;;;;36.40;15.60;;;-0.80;99.90;;;;;;10319266;28;20710;-80
2022/12/11 08:38:57;;;;;;;53.83;16.97;;;-0.80;99.90;;;;;;10320648;28;20097;-79
2022/12/11 08:43:59;;;;;;;47.23;14.10;;;-0.80;99.90;;;;;;10311124;28;20072;-79
2022/12/11 08:49:00;;;;;;;39.17;14.47;;;-0.80;99.90;;;;;;10319892;28;20042;-80
2022/12/11 08:54:01;;;;;;;30.50;11.63;;;-0.80;99.90;;;;;;10321797;28;20506;-82
2022/12/11 08:59:02;;;;;;;38.93;12.67;;;-0.80;99.90;;;;;;10309053;28;20049;-81
2022/12/11 09:04:03;;;;;;;36.00;11.67;;;-0.70;99.90;;;;;;10314269;28;20081;-80
2022/12/11 09:09:04;;;;;;;43.80;13.93;;;-0.70;99.90;;;;;;10311016;28;20031;-80
2022/12/11 09:14:05;;;;;;;45.77;12.33;;;-0.70;99.90;;;;;;10317861;28;20062;-80
2022/12/11 09:19:07;;;;;;;39.30;13.83;;;-0.70;99.90;;;;;;10318738;28;20065;-80
2022/12/11 09:24:10;;;;;;;36.17;11.00;;;-0.70;99.90;;;;;;10312988;28;20041;-80
2022/12/11 09:29:12;;;;;;;34.43;11.00;;;-0.70;99.90;;;;;;10313954;28;20042;-81
2022/12/11 09:34:13;;;;;;;33.83;11.83;;;-0.70;99.90;;;;;;10320022;28;20042;-80
2022/12/11 09:39:16;;;;;;;34.27;11.07;;;-0.70;99.90;;;;;;10319985;28;20124;-80
2022/12/11 09:44:42;;;;;;;27.83;10.63;;;-0.70;99.90;;;;;;10319004;28;20042;-82
2022/12/11 09:49:43;;;;;;;;;;;-0.70;99.90;;;;;;10306538;28;20080;-82
2022/12/11 09:54:49;;;;;;;35.77;11.30;;;-0.70;99.90;;;;;;10316611;28;20417;-82
2022/12/11 10:00:10;;;;;;;30.83;10.32;;;-0.70;99.90;;;;;;10318816;28;20037;-85
2022/12/11 10:05:17;;;;;;;29.27;9.97;;;-0.60;99.90;;;;;;10316686;28;20031;-89
2022/12/11 10:10:30;;;;;;;32.37;10.70;;;-0.50;99.90;;;;;;10306998;28;20134;-83
2022/12/11 10:15:39;;;;;;;37.27;12.93;;;-0.50;99.90;;;;;;10302308;28;20042;-84
2022/12/11 10:20:41;;;;;;;38.63;12.37;;;-0.40;99.90;;;;;;10302742;28;20041;-84
2022/12/11 10:26:00;;;;;;;26.17;9.03;;;-0.30;99.90;;;;;;10293847;28;20030;-82
2022/12/11 10:31:09;;;;;;;36.40;12.17;;;-0.30;99.90;;;;;;10305734;28;20034;-85
2022/12/11 10:36:14;;;;;;;37.67;11.87;;;-0.40;99.90;;;;;;10309270;28;20338;-83
2022/12/11 10:41:23;;;;;;;41.33;14.13;;;-0.50;99.90;;;;;;10310085;28;20397;-81
2022/12/11 10:46:28;;;;;;;45.57;14.30;;;-0.50;99.90;;;;;;10318117;28;20034;-80
2022/12/11 10:51:29;;;;;;;43.28;14.52;;;-0.50;99.90;;;;;;10317448;28;20130;-81
2022/12/11 10:56:32;;;;;;;40.70;12.83;;;-0.50;99.90;;;;;;10318880;28;20038;-80
2022/12/11 11:01:33;;;;;;;36.00;13.57;;;-0.50;99.90;;;;;;10318366;28;20023;-80
2022/12/11 11:06:33;;;;;;;39.87;14.00;;;-0.50;99.90;;;;;;10318986;28;20034;-81
2022/12/11 11:11:38;;;;;;;45.70;15.23;;;-0.60;99.90;;;;;;10318976;28;20038;-82
2022/12/11 11:16:41;;;;;;;49.43;17.47;;;-0.50;99.90;;;;;;10318617;28;20047;-81
2022/12/11 11:21:48;;;;;;;42.23;16.13;;;-0.60;99.90;;;;;;10318571;28;20030;-81
2022/12/11 11:26:49;;;;;;;42.47;15.00;;;-0.60;99.90;;;;;;10319429;28;20044;-82
2022/12/11 11:31:50;;;;;;;46.27;17.10;;;-0.60;99.90;;;;;;10334718;23;20038;-83
2022/12/11 11:36:59;;;;;;;45.67;15.53;;;-0.70;99.90;;;;;;10359104;28;20034;-80
2022/12/11 11:42:16;;;;;;;38.53;13.17;;;-0.60;99.90;;;;;;10358617;28;20501;-81
2022/12/11 11:47:24;;;;;;;45.17;16.43;;;-0.50;99.90;;;;;;10364718;28;20124;-81
2022/12/11 11:52:44;;;;;;;51.93;16.87;;;-0.50;99.90;;;;;;10372626;28;20041;-83
2022/12/11 11:57:51;;;;;;;47.60;14.97;;;-0.70;99.90;;;;;;10373805;28;20088;-81
2022/12/11 12:03:01;;;;;;;58.83;16.73;;;-0.80;99.90;;;;;;10353530;28;20069;-79
2022/12/11 12:08:31;;;;;;;50.17;15.63;;;-1.00;99.90;;;;;;10326353;28;20030;-80
2022/12/11 12:14:06;;;;;;;40.33;14.03;;;-1.00;99.90;;;;;;10323499;28;20044;-84
2022/12/11 12:19:13;;;;;;;40.23;12.83;;;-1.10;99.90;;;;;;10324224;28;20043;-82
2022/12/11 12:24:19;;;;;;;43.43;15.50;;;-1.20;99.90;;;;;;10325389;28;20425;-81
2022/12/11 12:29:52;;;;;;;47.67;15.67;;;-1.10;99.90;;;;;;10328381;28;20105;-87
2022/12/11 12:35:23;;;;;;;53.43;16.10;;;-1.10;99.90;;;;;;10320409;28;20493;-88
2022/12/11 12:40:50;;;;;;;53.17;16.23;;;-1.10;99.90;;;;;;10337601;28;20030;-88
2022/12/11 12:46:23;;;;;;;34.23;12.40;;;-1.00;99.90;;;;;;10315176;28;20057;-82
2022/12/11 12:51:25;;;;;;;45.20;14.67;;;-1.00;99.90;;;;;;10320069;28;20027;-81
2022/12/11 12:56:28;;;;;;;44.47;13.80;;;-1.10;99.90;;;;;;10321970;28;20034;-82
2022/12/11 13:01:30;;;;;;;46.57;16.07;;;-1.20;99.90;;;;;;10316695;28;20558;-82
2022/12/11 13:06:44;;;;;;;43.70;14.63;;;-1.20;99.90;;;;;;10321186;28;20077;-81
2022/12/11 13:11:48;;;;;;;49.67;15.57;;;-1.20;99.90;;;;;;10351455;28;20511;-80
2022/12/11 13:16:51;;;;;;;43.17;14.63;;;-1.20;99.90;;;;;;10325939;28;20038;-82
2022/12/11 13:22:13;;;;;;;48.70;15.23;;;-1.20;99.90;;;;;;10319936;28;20035;-81
2022/12/11 13:27:35;;;;;;;49.63;14.90;;;-1.20;99.90;;;;;;10313680;28;20104;-82
2022/12/11 13:32:36;;;;;;;52.80;17.73;;;-1.30;99.90;;;;;;10317035;28;20085;-83
2022/12/11 13:37:43;;;;;;;50.43;15.17;;;-1.30;99.90;;;;;;10321897;28;20046;-82
2022/12/11 13:42:49;;;;;;;51.37;17.00;;;-1.30;99.90;;;;;;10317074;28;20114;-84
2022/12/11 13:47:50;;;;;;;45.67;15.33;;;-1.40;99.90;;;;;;10318047;28;20085;-81
2022/12/11 13:52:59;;;;;;;46.57;17.80;;;-1.40;99.90;;;;;;10317389;28;20184;-81
2022/12/11 13:58:00;;;;;;;51.23;18.17;;;-1.40;99.90;;;;;;10315923;28;20133;-84
2022/12/11 14:03:06;;;;;;;46.63;15.23;;;-1.50;99.90;;;;;;10316502;28;20477;-82
2022/12/11 14:08:10;;;;;;;;;;;-1.50;99.90;;;;;;10315646;28;20034;-85
2022/12/11 14:13:26;;;;;;;56.87;18.07;;;-1.60;99.90;;;;;;10318555;28;19914;-81
2022/12/11 14:18:32;;;;;;;60.75;17.75;;;-1.60;99.90;;;;;;10315319;28;20142;-81
2022/12/11 14:23:36;;;;;;;63.70;21.73;;;-1.60;99.90;;;;;;10317562;28;20034;-82
2022/12/11 14:28:40;;;;;;;52.33;18.30;;;-1.70;99.90;;;;;;10315806;28;20498;-81
2022/12/11 14:33:45;;;;;;;56.70;19.73;;;-1.80;99.90;;;;;;10318225;28;20116;-82
2022/12/11 14:39:09;;;;;;;60.95;21.75;;;-1.80;99.90;;;;;;10317833;28;20081;-82
2022/12/11 14:44:15;;;;;;;69.10;22.40;;;-1.80;99.90;;;;;;10316188;28;20597;-82
2022/12/11 14:49:25;;;;;;;59.07;21.33;;;-1.80;99.90;;;;;;10347345;28;20038;-85
2022/12/11 14:54:41;;;;;;;66.93;23.57;;;-1.80;99.90;;;;;;10315948;28;20073;-85
2022/12/11 14:59:45;;;;;;;71.83;24.87;;;-1.80;99.90;;;;;;10316689;28;20033;-82
2022/12/11 15:05:00;;;;;;;69.67;23.20;;;-1.70;99.90;;;;;;10315729;28;20030;-81
2022/12/11 15:10:02;;;;;;;72.67;25.40;;;-1.70;99.90;;;;;;10314334;28;20038;-81
2022/12/11 15:15:06;;;;;;;77.73;24.77;;;-1.70;99.90;;;;;;10346143;28;20124;-84
2022/12/11 15:20:19;;;;;;;74.83;23.27;;;-1.70;99.90;;;;;;10317156;28;20178;-85
2022/12/11 15:25:22;;;;;;;67.20;24.33;;;-1.70;99.90;;;;;;10323233;28;20680;-82
2022/12/11 15:30:25;;;;;;;81.50;25.07;;;-1.70;99.90;;;;;;10324823;28;20434;-83
2022/12/11 15:35:27;;;;;;;81.77;25.40;;;-1.60;99.90;;;;;;10322242;28;20058;-82
2022/12/11 15:40:28;;;;;;;58.07;20.27;;;-1.60;99.90;;;;;;10325983;28;20049;-81
2022/12/11 15:45:28;;;;;;;66.93;21.50;;;-1.60;99.90;;;;;;10323969;28;20022;-83
2022/12/11 15:50:29;;;;;;;57.43;18.97;;;-1.60;99.90;;;;;;10325637;28;20465;-82
2022/12/11 15:55:33;;;;;;;53.43;18.90;;;-1.60;99.90;;;;;;10322780;28;20113;-82
2022/12/11 16:00:34;;;;;;;48.67;18.00;;;-1.70;99.90;;;;;;10322012;28;20032;-82
2022/12/11 16:05:35;;;;;;;53.03;17.37;;;-1.80;99.90;;;;;;10323496;28;20043;-82
2022/12/11 16:10:36;;;;;;;44.27;15.70;;;-1.80;99.90;;;;;;10321078;28;20034;-81
2022/12/11 16:15:39;;;;;;;48.30;18.43;;;-1.80;99.90;;;;;;10320230;28;20196;-83
2022/12/11 16:20:40;;;;;;;46.83;16.83;;;-1.80;99.90;;;;;;10320599;28;20031;-81
2022/12/11 16:25:42;;;;;;;47.40;17.37;;;-1.90;99.90;;;;;;10319482;28;20034;-83
2022/12/11 16:30:43;;;;;;;53.50;20.47;;;-1.90;99.90;;;;;;10322024;28;20544;-82
2022/12/11 16:35:44;;;;;;;46.33;17.97;;;-1.90;99.90;;;;;;10318984;28;20057;-81
2022/12/11 16:40:44;;;;;;;54.17;18.80;;;-2.00;99.90;;;;;;10320099;28;20032;-81
2022/12/11 16:45:45;;;;;;;48.97;17.63;;;-2.00;99.90;;;;;;10318603;28;20026;-83
2022/12/11 16:50:46;;;;;;;55.97;18.30;;;-2.00;99.90;;;;;;10317647;28;20042;-81
2022/12/11 16:55:47;;;;;;;63.00;19.77;;;-2.00;99.90;;;;;;10320346;28;20746;-82
2022/12/11 17:00:48;;;;;;;60.33;22.57;;;-2.00;99.90;;;;;;10320309;28;20097;-82
2022/12/11 17:05:48;;;;;;;55.00;20.60;;;-2.00;99.90;;;;;;10319159;28;20034;-80
2022/12/11 17:10:50;;;;;;;57.23;22.03;;;-2.00;99.90;;;;;;10319107;28;20034;-81
2022/12/11 17:15:51;;;;;;;51.97;18.47;;;-2.00;99.90;;;;;;10320290;28;20513;-83
2022/12/11 17:20:52;;;;;;;58.17;18.30;;;-2.00;99.90;;;;;;10321373;28;20038;-82
2022/12/11 17:25:52;;;;;;;74.77;25.37;;;-2.00;99.90;;;;;;10320108;28;20045;-81
2022/12/11 17:30:53;;;;;;;92.07;35.67;;;-2.00;99.90;;;;;;10319787;28;20030;-82
2022/12/11 17:35:54;;;;;;;130.67;47.43;;;-2.00;99.90;;;;;;10319222;28;20050;-82
2022/12/11 17:40:55;;;;;;;117.00;41.73;;;-2.00;99.90;;;;;;10319587;28;20037;-82
2022/12/11 17:45:55;;;;;;;116.80;42.53;;;-1.90;99.90;;;;;;10319844;28;20038;-83
2022/12/11 17:50:56;;;;;;;170.37;53.93;;;-2.00;99.90;;;;;;10318426;28;20034;-83
2022/12/11 17:56:01;;;;;;;139.73;48.67;;;-2.00;99.90;;;;;;10319248;28;20804;-80
2022/12/11 18:01:06;;;;;;;;;;;-2.00;99.90;;;;;;10318163;28;20121;-81
2022/12/11 18:06:13;;;;;;;113.53;38.80;;;-2.10;99.90;;;;;;10319025;28;19913;-84
2022/12/11 18:11:16;;;;;;;104.23;33.90;;;-2.10;99.90;;;;;;10321222;28;20038;-84
2022/12/11 18:16:18;;;;;;;112.67;36.57;;;-2.20;99.90;;;;;;10306905;28;20042;-82
2022/12/11 18:21:25;;;;;;;124.40;46.23;;;-2.20;99.90;;;;;;10319580;28;20034;-84
2022/12/11 18:26:26;;;;;;;81.77;30.00;;;-2.20;99.90;;;;;;10319638;28;20049;-82
2022/12/11 18:31:27;;;;;;;74.40;25.90;;;-2.30;99.90;;;;;;10348611;28;20694;-83
2022/12/11 18:36:28;;;;;;;65.13;22.50;;;-2.30;99.90;;;;;;10316979;28;20108;-82
2022/12/11 18:41:29;;;;;;;75.07;24.80;;;-2.30;99.90;;;;;;10316151;28;20034;-86
2022/12/11 18:46:29;;;;;;;62.57;23.20;;;-2.40;99.90;;;;;;10319414;28;20038;-82
2022/12/11 18:51:30;;;;;;;75.97;26.00;;;-2.40;99.90;;;;;;10318964;28;20038;-83
2022/12/11 18:56:30;;;;;;;71.53;23.07;;;-2.30;99.90;;;;;;10313421;28;20872;-85
2022/12/11 19:01:32;;;;;;;89.60;28.77;;;-2.30;99.90;;;;;;10326044;28;20034;-85
2022/12/11 19:06:34;;;;;;;109.27;36.50;;;-2.30;99.90;;;;;;10326534;28;20065;-82
2022/12/11 19:11:37;;;;;;;89.07;29.13;;;-2.30;99.90;;;;;;10326460;28;20064;-82
2022/12/11 19:16:41;;;;;;;79.60;29.20;;;-2.30;99.90;;;;;;10324955;28;20069;-86
2022/12/11 19:21:42;;;;;;;87.60;28.57;;;-2.30;99.90;;;;;;10325722;28;20037;-84
2022/12/11 19:26:43;;;;;;;63.60;21.50;;;-2.30;99.90;;;;;;10325767;28;20116;-83
2022/12/11 19:31:44;;;;;;;78.03;28.53;;;-2.20;99.90;;;;;;10325253;28;20113;-84
2022/12/11 19:36:45;;;;;;;106.40;37.13;;;-2.20;99.90;;;;;;10320600;28;20049;-83
2022/12/11 19:41:46;;;;;;;85.20;28.47;;;-2.20;99.90;;;;;;10319740;28;20033;-86
2022/12/11 19:46:46;;;;;;;80.43;30.33;;;-2.20;99.90;;;;;;10318849;28;20039;-82
2022/12/11 19:51:47;;;;;;;108.37;38.43;;;-2.10;99.90;;;;;;10308619;28;20586;-86
2022/12/11 19:56:47;;;;;;;123.07;43.17;;;-2.20;99.90;;;;;;10324568;28;20538;-83
2022/12/11 20:01:48;;;;;;;107.47;39.83;;;-2.10;99.90;;;;;;10323562;28;20161;-84
2022/12/11 20:06:49;;;;;;;85.33;36.33;;;-2.20;99.90;;;;;;10323362;28;20425;-83
2022/12/11 20:11:49;;;;;;;88.17;33.23;;;-2.20;99.90;;;;;;10324427;28;20038;-84
2022/12/11 20:16:51;;;;;;;62.67;25.10;;;-2.20;99.90;;;;;;10323999;28;20113;-82
2022/12/11 20:21:52;;;;;;;93.87;34.83;;;-2.20;99.90;;;;;;10324232;28;20045;-82
2022/12/11 20:26:53;;;;;;;113.13;38.27;;;-2.30;99.90;;;;;;10323716;28;20445;-82
2022/12/11 20:31:54;;;;;;;91.77;31.17;;;-2.30;99.90;;;;;;10321067;28;20030;-84
2022/12/11 20:36:55;;;;;;;80.40;30.50;;;-2.30;99.90;;;;;;10300381;28;20038;-82
2022/12/11 20:41:55;;;;;;;100.57;34.17;;;-2.40;99.90;;;;;;10320139;28;20034;-84
2022/12/11 20:46:56;;;;;;;96.40;33.83;;;-2.40;99.90;;;;;;10354392;28;20030;-84
2022/12/11 20:51:58;;;;;;;76.43;27.67;;;-2.40;99.90;;;;;;10323322;28;20169;-82
2022/12/11 20:56:58;;;;;;;115.43;38.50;;;-2.40;99.90;;;;;;10322698;28;20129;-83
2022/12/11 21:01:59;;;;;;;113.27;37.53;;;-2.40;99.90;;;;;;10313517;28;20030;-84
2022/12/11 21:07:00;;;;;;;110.33;32.77;;;-2.50;99.90;;;;;;10322407;28;20048;-86
2022/12/11 21:12:01;;;;;;;82.87;30.17;;;-2.50;99.90;;;;;;10320234;28;20456;-81
2022/12/11 21:17:01;;;;;;;85.77;27.47;;;-2.50;99.90;;;;;;10320651;28;20068;-82
2022/12/11 21:22:02;;;;;;;83.70;31.77;;;-2.50;99.90;;;;;;10321755;28;20038;-83
2022/12/11 21:27:03;;;;;;;92.53;32.70;;;-2.50;99.90;;;;;;10321802;28;20038;-83
2022/12/11 21:32:04;;;;;;;83.70;29.90;;;-2.50;99.90;;;;;;10319272;28;20054;-86
2022/12/11 21:37:05;;;;;;;104.67;33.10;;;-2.50;99.90;;;;;;10321509;28;20125;-82
2022/12/11 21:42:05;;;;;;;84.80;29.13;;;-2.50;99.90;;;;;;10320730;28;20036;-83
2022/12/11 21:47:06;;;;;;;99.17;31.60;;;-2.50;99.90;;;;;;10320601;28;20044;-84
2022/12/11 21:52:07;;;;;;;88.67;30.77;;;-2.40;99.90;;;;;;10319242;28;20038;-83
2022/12/11 21:57:08;;;;;;;93.90;32.27;;;-2.50;99.90;;;;;;10317727;28;20042;-83
2022/12/11 22:02:10;;;;;;;104.07;32.57;;;-2.50;99.90;;;;;;10318911;28;20042;-84
2022/12/11 22:07:10;;;;;;;101.10;33.47;;;-2.50;99.90;;;;;;10318538;28;20030;-84
2022/12/11 22:12:26;;;;;;;95.33;35.70;;;-2.50;99.90;;;;;;10320704;28;20042;-86
2022/12/11 22:17:26;;;;;;;77.05;28.20;;;-2.50;99.90;;;;;;10318490;28;20047;-83
2022/12/11 22:22:27;;;;;;;90.30;30.90;;;-2.50;99.90;;;;;;10318111;28;20022;-83
2022/12/11 22:27:27;;;;;;;84.27;29.07;;;-2.40;99.90;;;;;;10318646;28;20037;-86
2022/12/11 22:32:29;;;;;;;77.70;29.73;;;-2.40;99.90;;;;;;10318702;28;20057;-83
2022/12/11 22:37:30;;;;;;;77.03;26.60;;;-2.40;99.90;;;;;;10319156;28;20034;-83
2022/12/11 22:42:31;;;;;;;71.00;28.77;;;-2.50;99.90;;;;;;10319432;28;20134;-85
2022/12/11 22:47:31;;;;;;;75.73;26.77;;;-2.50;99.90;;;;;;10317566;28;20030;-83
2022/12/11 22:52:32;;;;;;;73.10;26.80;;;-2.50;99.90;;;;;;10318940;28;20050;-84
2022/12/11 22:57:35;;;;;;;67.53;24.33;;;-2.40;99.90;;;;;;10319327;28;20418;-85
2022/12/11 23:02:36;;;;;;;69.67;23.83;;;-2.40;99.90;;;;;;10300911;28;20037;-84
2022/12/11 23:07:38;;;;;;;71.73;23.90;;;-2.40;99.90;;;;;;10318518;28;20039;-82
2022/12/11 23:12:38;;;;;;;53.83;20.93;;;-2.30;99.90;;;;;;10316681;28;20034;-85
2022/12/11 23:17:39;;;;;;;62.73;22.87;;;-2.30;99.90;;;;;;10317789;28;20038;-82
2022/12/11 23:22:40;;;;;;;70.77;23.73;;;-2.30;99.90;;;;;;10317999;28;20061;-83
2022/12/11 23:27:40;;;;;;;57.67;21.07;;;-2.30;99.90;;;;;;10317416;28;20052;-86
2022/12/11 23:32:41;;;;;;;71.67;25.13;;;-2.30;99.90;;;;;;10317203;28;20057;-87
2022/12/11 23:37:41;;;;;;;59.03;21.17;;;-2.30;99.90;;;;;;10317707;28;20039;-88
2022/12/11 23:42:42;;;;;;;62.00;22.27;;;-2.30;99.90;;;;;;10324196;28;20033;-85
2022/12/11 23:47:42;;;;;;;67.80;22.27;;;-2.30;99.90;;;;;;10325359;28;20034;-86
2022/12/11 23:52:43;;;;;;;60.00;22.60;;;-2.30;99.90;;;;;;10323783;28;20635;-84
2022/12/11 23:57:44;;;;;;;67.93;24.60;;;-2.20;99.90;;;;;;10325168;28;20045;-84
